sensor_id;sensor_type;location;lat;lon;timestamp;P1;durP1;ratioP1;P2;durP2;ratioP2
13071;SDS011;6602;58.934;11.166;2023-05-28T00:00:34;15.38;;;5.45;;
13071;SDS011;6602;58.934;11.166;2023-05-28T00:05:35;16.45;;;5.28;;
13071;SDS011;6602;58.934;11.166;2023-05-28T00:10:38;17.02;;;5.38;;
13071;SDS011;6602;58.934;11.166;2023-05-28T00:15:43;18.05;;;4.63;;
13071;SDS011;6602;58.934;11.166;2023-05-28T00:20:50;23.20;;;4.50;;
13071;SDS011;6602;58.934;11.166;2023-05-28T00:25:57;26.93;;;8.47;;
13071;SDS011;6602;58.934;11.166;2023-05-28T00:30:58;24.73;;;6.10;;
13071;SDS011;6602;58.934;11.166;2023-05-28T00:36:00;20.85;;;5.18;;
13071;SDS011;6602;58.934;11.166;2023-05-28T00:41:03;22.23;;;7.30;;
13071;SDS011;6602;58.934;11.166;2023-05-28T00:46:08;19.90;;;5.80;;
13071;SDS011;6602;58.934;11.166;2023-05-28T00:51:16;19.08;;;5.20;;
13071;SDS011;6602;58.934;11.166;2023-05-28T00:56:25;31.80;;;5.90;;
13071;SDS011;6602;58.934;11.166;2023-05-28T01:01:34;20.60;;;5.65;;
13071;SDS011;6602;58.934;11.166;2023-05-28T01:06:38;18.60;;;5.20;;
13071;SDS011;6602;58.934;11.166;2023-05-28T01:11:42;22.85;;;5.07;;
13071;SDS011;6602;58.934;11.166;2023-05-28T01:16:47;26.00;;;5.65;;
13071;SDS011;6602;58.934;11.166;2023-05-28T01:22:00;17.30;;;5.05;;
13071;SDS011;6602;58.934;11.166;2023-05-28T01:27:17;26.83;;;5.18;;
13071;SDS011;6602;58.934;11.166;2023-05-28T01:32:23;22.83;;;4.53;;
13071;SDS011;6602;58.934;11.166;2023-05-28T01:37:30;15.32;;;5.00;;
13071;SDS011;6602;58.934;11.166;2023-05-28T01:42:37;16.30;;;4.95;;
13071;SDS011;6602;58.934;11.166;2023-05-28T01:47:41;21.65;;;6.00;;
13071;SDS011;6602;58.934;11.166;2023-05-28T01:52:43;18.00;;;5.10;;
13071;SDS011;6602;58.934;11.166;2023-05-28T01:57:48;18.63;;;5.30;;
13071;SDS011;6602;58.934;11.166;2023-05-28T02:02:53;16.35;;;4.07;;
13071;SDS011;6602;58.934;11.166;2023-05-28T02:07:57;16.48;;;4.13;;
13071;SDS011;6602;58.934;11.166;2023-05-28T02:13:04;12.90;;;3.90;;
13071;SDS011;6602;58.934;11.166;2023-05-28T02:18:05;11.15;;;3.75;;
13071;SDS011;6602;58.934;11.166;2023-05-28T02:23:10;13.20;;;3.20;;
13071;SDS011;6602;58.934;11.166;2023-05-28T02:28:11;16.13;;;3.38;;
13071;SDS011;6602;58.934;11.166;2023-05-28T02:33:14;10.65;;;3.15;;
13071;SDS011;6602;58.934;11.166;2023-05-28T02:38:22;8.13;;;2.53;;
13071;SDS011;6602;58.934;11.166;2023-05-28T02:43:29;8.80;;;2.37;;
13071;SDS011;6602;58.934;11.166;2023-05-28T02:48:33;8.27;;;2.00;;
13071;SDS011;6602;58.934;11.166;2023-05-28T02:53:40;13.00;;;2.27;;
13071;SDS011;6602;58.934;11.166;2023-05-28T02:58:47;6.35;;;1.92;;
13071;SDS011;6602;58.934;11.166;2023-05-28T03:03:56;9.88;;;2.10;;
13071;SDS011;6602;58.934;11.166;2023-05-28T03:08:59;9.23;;;2.55;;
13071;SDS011;6602;58.934;11.166;2023-05-28T03:14:01;8.60;;;2.00;;
13071;SDS011;6602;58.934;11.166;2023-05-28T03:19:03;9.32;;;1.95;;
13071;SDS011;6602;58.934;11.166;2023-05-28T03:24:08;11.95;;;2.10;;
13071;SDS011;6602;58.934;11.166;2023-05-28T03:29:09;5.97;;;2.10;;
13071;SDS011;6602;58.934;11.166;2023-05-28T03:34:09;12.40;;;2.30;;
13071;SDS011;6602;58.934;11.166;2023-05-28T03:39:11;7.82;;;1.88;;
13071;SDS011;6602;58.934;11.166;2023-05-28T03:44:15;9.27;;;2.15;;
13071;SDS011;6602;58.934;11.166;2023-05-28T03:49:19;4.18;;;1.75;;
13071;SDS011;6602;58.934;11.166;2023-05-28T03:54:26;9.65;;;1.73;;
13071;SDS011;6602;58.934;11.166;2023-05-28T03:59:34;11.63;;;1.80;;
13071;SDS011;6602;58.934;11.166;2023-05-28T04:04:35;5.75;;;1.80;;
13071;SDS011;6602;58.934;11.166;2023-05-28T04:09:36;8.82;;;2.45;;
13071;SDS011;6602;58.934;11.166;2023-05-28T04:14:39;5.43;;;1.60;;
13071;SDS011;6602;58.934;11.166;2023-05-28T04:19:41;5.85;;;1.83;;
13071;SDS011;6602;58.934;11.166;2023-05-28T04:24:42;8.57;;;1.77;;
13071;SDS011;6602;58.934;11.166;2023-05-28T04:29:45;7.15;;;1.85;;
13071;SDS011;6602;58.934;11.166;2023-05-28T04:34:46;8.02;;;1.83;;
13071;SDS011;6602;58.934;11.166;2023-05-28T04:39:49;8.05;;;1.75;;
13071;SDS011;6602;58.934;11.166;2023-05-28T04:44:52;5.68;;;1.70;;
13071;SDS011;6602;58.934;11.166;2023-05-28T04:49:56;9.50;;;2.63;;
13071;SDS011;6602;58.934;11.166;2023-05-28T04:54:58;11.45;;;2.05;;
13071;SDS011;6602;58.934;11.166;2023-05-28T04:59:59;8.38;;;2.10;;
13071;SDS011;6602;58.934;11.166;2023-05-28T05:05:01;5.55;;;1.48;;
13071;SDS011;6602;58.934;11.166;2023-05-28T05:10:12;5.05;;;1.77;;
13071;SDS011;6602;58.934;11.166;2023-05-28T05:15:13;7.05;;;2.40;;
13071;SDS011;6602;58.934;11.166;2023-05-28T05:20:16;8.98;;;2.22;;
13071;SDS011;6602;58.934;11.166;2023-05-28T05:25:19;7.80;;;1.80;;
13071;SDS011;6602;58.934;11.166;2023-05-28T05:30:28;6.90;;;1.90;;
13071;SDS011;6602;58.934;11.166;2023-05-28T05:35:29;9.82;;;2.67;;
13071;SDS011;6602;58.934;11.166;2023-05-28T05:40:34;4.35;;;1.77;;
13071;SDS011;6602;58.934;11.166;2023-05-28T05:45:47;12.98;;;2.33;;
13071;SDS011;6602;58.934;11.166;2023-05-28T05:50:51;10.00;;;1.90;;
13071;SDS011;6602;58.934;11.166;2023-05-28T05:55:57;7.53;;;1.50;;
13071;SDS011;6602;58.934;11.166;2023-05-28T06:00:59;7.72;;;2.40;;
13071;SDS011;6602;58.934;11.166;2023-05-28T06:06:02;7.97;;;2.22;;
13071;SDS011;6602;58.934;11.166;2023-05-28T06:11:04;10.25;;;1.80;;
13071;SDS011;6602;58.934;11.166;2023-05-28T06:16:06;15.48;;;2.55;;
13071;SDS011;6602;58.934;11.166;2023-05-28T06:21:07;9.43;;;1.80;;
13071;SDS011;6602;58.934;11.166;2023-05-28T06:26:11;6.18;;;1.95;;
13071;SDS011;6602;58.934;11.166;2023-05-28T06:31:16;8.35;;;1.88;;
13071;SDS011;6602;58.934;11.166;2023-05-28T06:36:20;8.40;;;1.77;;
13071;SDS011;6602;58.934;11.166;2023-05-28T06:41:25;11.88;;;2.08;;
13071;SDS011;6602;58.934;11.166;2023-05-28T06:46:42;7.68;;;1.70;;
13071;SDS011;6602;58.934;11.166;2023-05-28T06:51:49;9.48;;;2.03;;
13071;SDS011;6602;58.934;11.166;2023-05-28T06:56:50;6.72;;;1.77;;
13071;SDS011;6602;58.934;11.166;2023-05-28T07:01:51;7.85;;;2.03;;
13071;SDS011;6602;58.934;11.166;2023-05-28T07:06:54;5.00;;;1.48;;
13071;SDS011;6602;58.934;11.166;2023-05-28T07:11:58;7.78;;;1.65;;
13071;SDS011;6602;58.934;11.166;2023-05-28T07:17:00;12.63;;;1.88;;
13071;SDS011;6602;58.934;11.166;2023-05-28T07:22:01;12.43;;;2.63;;
13071;SDS011;6602;58.934;11.166;2023-05-28T07:27:02;8.82;;;1.75;;
13071;SDS011;6602;58.934;11.166;2023-05-28T07:32:09;8.70;;;1.88;;
13071;SDS011;6602;58.934;11.166;2023-05-28T07:37:15;11.32;;;2.03;;
13071;SDS011;6602;58.934;11.166;2023-05-28T07:42:17;6.78;;;2.10;;
13071;SDS011;6602;58.934;11.166;2023-05-28T07:47:31;11.95;;;2.20;;
13071;SDS011;6602;58.934;11.166;2023-05-28T07:52:32;9.10;;;2.03;;
13071;SDS011;6602;58.934;11.166;2023-05-28T07:57:35;6.60;;;2.08;;
13071;SDS011;6602;58.934;11.166;2023-05-28T08:02:40;7.07;;;1.83;;
13071;SDS011;6602;58.934;11.166;2023-05-28T08:07:42;7.70;;;1.75;;
13071;SDS011;6602;58.934;11.166;2023-05-28T08:12:53;6.05;;;1.48;;
13071;SDS011;6602;58.934;11.166;2023-05-28T08:17:57;3.50;;;1.33;;
13071;SDS011;6602;58.934;11.166;2023-05-28T08:23:07;7.53;;;1.58;;
13071;SDS011;6602;58.934;11.166;2023-05-28T08:28:08;9.00;;;2.05;;
13071;SDS011;6602;58.934;11.166;2023-05-28T08:33:12;5.85;;;1.60;;
13071;SDS011;6602;58.934;11.166;2023-05-28T08:38:13;8.05;;;1.27;;
13071;SDS011;6602;58.934;11.166;2023-05-28T08:43:15;7.03;;;2.05;;
13071;SDS011;6602;58.934;11.166;2023-05-28T08:48:16;9.30;;;1.70;;
13071;SDS011;6602;58.934;11.166;2023-05-28T08:53:21;6.85;;;1.48;;
13071;SDS011;6602;58.934;11.166;2023-05-28T08:58:23;8.27;;;1.58;;
13071;SDS011;6602;58.934;11.166;2023-05-28T09:03:26;5.55;;;1.65;;
13071;SDS011;6602;58.934;11.166;2023-05-28T09:08:28;8.15;;;2.83;;
13071;SDS011;6602;58.934;11.166;2023-05-28T09:13:32;9.02;;;1.88;;
13071;SDS011;6602;58.934;11.166;2023-05-28T09:18:33;8.73;;;1.50;;
13071;SDS011;6602;58.934;11.166;2023-05-28T09:23:35;3.90;;;1.17;;
13071;SDS011;6602;58.934;11.166;2023-05-28T09:28:39;4.50;;;1.10;;
13071;SDS011;6602;58.934;11.166;2023-05-28T09:33:46;7.20;;;1.23;;
13071;SDS011;6602;58.934;11.166;2023-05-28T09:38:47;6.57;;;1.38;;
13071;SDS011;6602;58.934;11.166;2023-05-28T09:44:09;6.53;;;1.27;;
13071;SDS011;6602;58.934;11.166;2023-05-28T09:49:11;5.28;;;1.02;;
13071;SDS011;6602;58.934;11.166;2023-05-28T09:54:12;4.20;;;1.10;;
13071;SDS011;6602;58.934;11.166;2023-05-28T09:59:15;5.10;;;1.25;;
13071;SDS011;6602;58.934;11.166;2023-05-28T10:04:21;4.22;;;1.33;;
13071;SDS011;6602;58.934;11.166;2023-05-28T10:09:27;3.90;;;1.00;;
13071;SDS011;6602;58.934;11.166;2023-05-28T10:14:31;5.65;;;1.48;;
13071;SDS011;6602;58.934;11.166;2023-05-28T10:19:33;3.95;;;1.52;;
13071;SDS011;6602;58.934;11.166;2023-05-28T10:24:35;4.78;;;1.13;;
13071;SDS011;6602;58.934;11.166;2023-05-28T10:29:40;4.32;;;0.80;;
13071;SDS011;6602;58.934;11.166;2023-05-28T10:34:42;4.82;;;1.05;;
13071;SDS011;6602;58.934;11.166;2023-05-28T10:39:44;5.68;;;1.50;;
13071;SDS011;6602;58.934;11.166;2023-05-28T10:50:12;5.80;;;1.15;;
13071;SDS011;6602;58.934;11.166;2023-05-28T10:55:19;3.85;;;1.05;;
13071;SDS011;6602;58.934;11.166;2023-05-28T11:00:23;3.22;;;0.85;;
13071;SDS011;6602;58.934;11.166;2023-05-28T11:05:25;2.58;;;1.02;;
13071;SDS011;6602;58.934;11.166;2023-05-28T11:10:27;6.53;;;1.10;;
13071;SDS011;6602;58.934;11.166;2023-05-28T11:15:28;6.22;;;1.35;;
13071;SDS011;6602;58.934;11.166;2023-05-28T11:20:29;2.80;;;0.82;;
13071;SDS011;6602;58.934;11.166;2023-05-28T11:25:30;3.83;;;0.98;;
13071;SDS011;6602;58.934;11.166;2023-05-28T11:30:31;3.33;;;1.02;;
13071;SDS011;6602;58.934;11.166;2023-05-28T11:35:34;6.72;;;1.58;;
13071;SDS011;6602;58.934;11.166;2023-05-28T11:40:35;4.65;;;0.90;;
13071;SDS011;6602;58.934;11.166;2023-05-28T11:45:36;4.10;;;0.80;;
13071;SDS011;6602;58.934;11.166;2023-05-28T11:50:38;2.47;;;0.60;;
13071;SDS011;6602;58.934;11.166;2023-05-28T11:55:39;3.60;;;0.73;;
13071;SDS011;6602;58.934;11.166;2023-05-28T12:00:40;5.85;;;1.20;;
13071;SDS011;6602;58.934;11.166;2023-05-28T12:05:41;5.70;;;1.00;;
13071;SDS011;6602;58.934;11.166;2023-05-28T12:10:42;5.80;;;0.75;;
13071;SDS011;6602;58.934;11.166;2023-05-28T12:15:44;4.72;;;0.95;;
13071;SDS011;6602;58.934;11.166;2023-05-28T12:20:45;2.78;;;0.75;;
13071;SDS011;6602;58.934;11.166;2023-05-28T12:25:47;5.07;;;1.38;;
13071;SDS011;6602;58.934;11.166;2023-05-28T12:30:53;3.92;;;0.68;;
13071;SDS011;6602;58.934;11.166;2023-05-28T12:35:57;3.20;;;0.60;;
13071;SDS011;6602;58.934;11.166;2023-05-28T12:41:00;4.07;;;0.77;;
13071;SDS011;6602;58.934;11.166;2023-05-28T12:46:04;4.85;;;0.90;;
13071;SDS011;6602;58.934;11.166;2023-05-28T12:51:05;5.38;;;0.80;;
13071;SDS011;6602;58.934;11.166;2023-05-28T12:56:06;3.50;;;0.90;;
13071;SDS011;6602;58.934;11.166;2023-05-28T13:01:07;2.65;;;0.30;;
13071;SDS011;6602;58.934;11.166;2023-05-28T13:06:08;4.13;;;0.73;;
13071;SDS011;6602;58.934;11.166;2023-05-28T13:11:09;3.53;;;1.10;;
13071;SDS011;6602;58.934;11.166;2023-05-28T13:16:11;2.33;;;0.50;;
13071;SDS011;6602;58.934;11.166;2023-05-28T13:21:12;3.38;;;0.45;;
13071;SDS011;6602;58.934;11.166;2023-05-28T13:26:13;2.55;;;0.90;;
13071;SDS011;6602;58.934;11.166;2023-05-28T13:31:15;7.03;;;0.93;;
13071;SDS011;6602;58.934;11.166;2023-05-28T13:36:16;1.42;;;0.70;;
13071;SDS011;6602;58.934;11.166;2023-05-28T13:41:18;2.35;;;0.50;;
13071;SDS011;6602;58.934;11.166;2023-05-28T13:46:19;2.53;;;0.70;;
13071;SDS011;6602;58.934;11.166;2023-05-28T13:51:26;9.48;;;1.10;;
13071;SDS011;6602;58.934;11.166;2023-05-28T13:56:28;2.65;;;0.90;;
13071;SDS011;6602;58.934;11.166;2023-05-28T14:01:29;4.57;;;0.90;;
13071;SDS011;6602;58.934;11.166;2023-05-28T14:06:30;1.42;;;0.60;;
13071;SDS011;6602;58.934;11.166;2023-05-28T14:11:33;6.03;;;0.95;;
13071;SDS011;6602;58.934;11.166;2023-05-28T14:16:34;1.85;;;0.70;;
13071;SDS011;6602;58.934;11.166;2023-05-28T14:21:37;4.55;;;1.80;;
13071;SDS011;6602;58.934;11.166;2023-05-28T14:26:38;10.98;;;7.55;;
13071;SDS011;6602;58.934;11.166;2023-05-28T14:31:39;12.55;;;6.72;;
13071;SDS011;6602;58.934;11.166;2023-05-28T14:36:40;13.13;;;5.40;;
13071;SDS011;6602;58.934;11.166;2023-05-28T14:41:41;26.73;;;16.38;;
13071;SDS011;6602;58.934;11.166;2023-05-28T14:46:43;10.93;;;5.18;;
13071;SDS011;6602;58.934;11.166;2023-05-28T14:51:44;6.40;;;2.83;;
13071;SDS011;6602;58.934;11.166;2023-05-28T14:56:44;5.88;;;2.30;;
13071;SDS011;6602;58.934;11.166;2023-05-28T15:01:46;2.38;;;1.48;;
13071;SDS011;6602;58.934;11.166;2023-05-28T15:06:46;7.75;;;2.83;;
13071;SDS011;6602;58.934;11.166;2023-05-28T15:11:47;2.63;;;1.10;;
13071;SDS011;6602;58.934;11.166;2023-05-28T15:16:48;34.42;;;20.55;;
13071;SDS011;6602;58.934;11.166;2023-05-28T15:21:49;79.57;;;54.72;;
13071;SDS011;6602;58.934;11.166;2023-05-28T15:26:51;9.48;;;5.32;;
13071;SDS011;6602;58.934;11.166;2023-05-28T15:31:52;103.75;;;63.97;;
13071;SDS011;6602;58.934;11.166;2023-05-28T15:36:55;124.82;;;75.30;;
13071;SDS011;6602;58.934;11.166;2023-05-28T15:42:03;275.42;;;176.02;;
13071;SDS011;6602;58.934;11.166;2023-05-28T15:47:05;146.02;;;87.05;;
13071;SDS011;6602;58.934;11.166;2023-05-28T15:52:06;60.08;;;33.13;;
13071;SDS011;6602;58.934;11.166;2023-05-28T15:57:07;12.65;;;5.95;;
13071;SDS011;6602;58.934;11.166;2023-05-28T16:02:11;97.82;;;49.47;;
13071;SDS011;6602;58.934;11.166;2023-05-28T16:07:15;23.35;;;12.63;;
13071;SDS011;6602;58.934;11.166;2023-05-28T16:12:17;25.70;;;15.20;;
13071;SDS011;6602;58.934;11.166;2023-05-28T16:17:19;108.95;;;48.72;;
13071;SDS011;6602;58.934;11.166;2023-05-28T16:22:21;98.45;;;53.70;;
13071;SDS011;6602;58.934;11.166;2023-05-28T16:27:22;8.68;;;5.30;;
13071;SDS011;6602;58.934;11.166;2023-05-28T16:32:26;4.00;;;2.80;;
13071;SDS011;6602;58.934;11.166;2023-05-28T16:37:29;12.73;;;6.13;;
13071;SDS011;6602;58.934;11.166;2023-05-28T16:42:30;2.25;;;1.13;;
13071;SDS011;6602;58.934;11.166;2023-05-28T16:47:32;2.38;;;0.80;;
13071;SDS011;6602;58.934;11.166;2023-05-28T16:52:36;2.00;;;0.80;;
13071;SDS011;6602;58.934;11.166;2023-05-28T16:57:38;3.65;;;0.70;;
13071;SDS011;6602;58.934;11.166;2023-05-28T17:02:39;0.93;;;0.65;;
13071;SDS011;6602;58.934;11.166;2023-05-28T17:07:41;1.17;;;0.85;;
13071;SDS011;6602;58.934;11.166;2023-05-28T17:12:44;1.80;;;0.60;;
13071;SDS011;6602;58.934;11.166;2023-05-28T17:17:45;3.38;;;0.60;;
13071;SDS011;6602;58.934;11.166;2023-05-28T17:22:49;0.93;;;0.57;;
13071;SDS011;6602;58.934;11.166;2023-05-28T17:27:50;0.50;;;0.47;;
13071;SDS011;6602;58.934;11.166;2023-05-28T17:32:50;4.38;;;0.60;;
13071;SDS011;6602;58.934;11.166;2023-05-28T17:37:51;0.63;;;0.60;;
13071;SDS011;6602;58.934;11.166;2023-05-28T17:42:52;1.60;;;0.68;;
13071;SDS011;6602;58.934;11.166;2023-05-28T17:47:53;0.63;;;0.45;;
13071;SDS011;6602;58.934;11.166;2023-05-28T17:52:54;0.60;;;0.30;;
13071;SDS011;6602;58.934;11.166;2023-05-28T17:57:56;0.63;;;0.60;;
13071;SDS011;6602;58.934;11.166;2023-05-28T18:02:57;1.48;;;0.40;;
13071;SDS011;6602;58.934;11.166;2023-05-28T18:08:00;0.50;;;0.50;;
13071;SDS011;6602;58.934;11.166;2023-05-28T18:13:01;0.50;;;0.50;;
13071;SDS011;6602;58.934;11.166;2023-05-28T18:18:02;1.13;;;0.65;;
13071;SDS011;6602;58.934;11.166;2023-05-28T18:23:03;0.30;;;0.30;;
13071;SDS011;6602;58.934;11.166;2023-05-28T18:28:09;0.50;;;0.50;;
13071;SDS011;6602;58.934;11.166;2023-05-28T18:33:11;0.75;;;0.50;;
13071;SDS011;6602;58.934;11.166;2023-05-28T18:38:12;1.20;;;0.65;;
13071;SDS011;6602;58.934;11.166;2023-05-28T18:43:15;2.05;;;0.50;;
13071;SDS011;6602;58.934;11.166;2023-05-28T18:48:16;0.35;;;0.30;;
13071;SDS011;6602;58.934;11.166;2023-05-28T18:53:17;1.08;;;0.73;;
13071;SDS011;6602;58.934;11.166;2023-05-28T18:58:21;1.92;;;0.60;;
13071;SDS011;6602;58.934;11.166;2023-05-28T19:03:22;0.65;;;0.50;;
13071;SDS011;6602;58.934;11.166;2023-05-28T19:08:23;3.25;;;0.35;;
13071;SDS011;6602;58.934;11.166;2023-05-28T19:13:24;1.08;;;0.55;;
13071;SDS011;6602;58.934;11.166;2023-05-28T19:18:25;2.60;;;0.68;;
13071;SDS011;6602;58.934;11.166;2023-05-28T19:23:26;1.27;;;0.52;;
13071;SDS011;6602;58.934;11.166;2023-05-28T19:28:27;0.50;;;0.47;;
13071;SDS011;6602;58.934;11.166;2023-05-28T19:33:28;0.57;;;0.50;;
13071;SDS011;6602;58.934;11.166;2023-05-28T19:38:29;1.15;;;0.57;;
13071;SDS011;6602;58.934;11.166;2023-05-28T19:43:30;1.83;;;0.40;;
13071;SDS011;6602;58.934;11.166;2023-05-28T19:48:31;1.13;;;0.50;;
13071;SDS011;6602;58.934;11.166;2023-05-28T19:53:33;2.45;;;0.52;;
13071;SDS011;6602;58.934;11.166;2023-05-28T19:58:33;0.55;;;0.50;;
13071;SDS011;6602;58.934;11.166;2023-05-28T20:03:34;1.85;;;0.68;;
13071;SDS011;6602;58.934;11.166;2023-05-28T20:08:35;0.47;;;0.47;;
13071;SDS011;6602;58.934;11.166;2023-05-28T20:13:36;3.33;;;0.43;;
13071;SDS011;6602;58.934;11.166;2023-05-28T20:18:40;4.43;;;0.65;;
13071;SDS011;6602;58.934;11.166;2023-05-28T20:23:41;0.77;;;0.50;;
13071;SDS011;6602;58.934;11.166;2023-05-28T20:28:41;1.10;;;0.50;;
13071;SDS011;6602;58.934;11.166;2023-05-28T20:33:42;0.80;;;0.50;;
13071;SDS011;6602;58.934;11.166;2023-05-28T20:38:44;1.38;;;0.50;;
13071;SDS011;6602;58.934;11.166;2023-05-28T20:43:45;2.22;;;0.68;;
13071;SDS011;6602;58.934;11.166;2023-05-28T20:48:46;0.88;;;0.60;;
13071;SDS011;6602;58.934;11.166;2023-05-28T20:53:47;1.30;;;0.60;;
13071;SDS011;6602;58.934;11.166;2023-05-28T20:58:48;2.42;;;0.50;;
13071;SDS011;6602;58.934;11.166;2023-05-28T21:03:49;1.55;;;0.73;;
13071;SDS011;6602;58.934;11.166;2023-05-28T21:08:51;1.13;;;0.50;;
13071;SDS011;6602;58.934;11.166;2023-05-28T21:13:56;1.25;;;1.15;;
13071;SDS011;6602;58.934;11.166;2023-05-28T21:19:00;0.65;;;0.60;;
13071;SDS011;6602;58.934;11.166;2023-05-28T21:24:01;0.80;;;0.60;;
13071;SDS011;6602;58.934;11.166;2023-05-28T21:29:05;0.67;;;0.60;;
13071;SDS011;6602;58.934;11.166;2023-05-28T21:34:07;1.23;;;0.70;;
13071;SDS011;6602;58.934;11.166;2023-05-28T21:39:11;0.90;;;0.70;;
13071;SDS011;6602;58.934;11.166;2023-05-28T21:44:12;0.60;;;0.50;;
13071;SDS011;6602;58.934;11.166;2023-05-28T21:49:13;1.47;;;0.70;;
13071;SDS011;6602;58.934;11.166;2023-05-28T21:54:14;1.70;;;0.50;;
13071;SDS011;6602;58.934;11.166;2023-05-28T21:59:15;0.60;;;0.47;;
13071;SDS011;6602;58.934;11.166;2023-05-28T22:04:16;0.60;;;0.50;;
13071;SDS011;6602;58.934;11.166;2023-05-28T22:09:17;1.07;;;0.73;;
13071;SDS011;6602;58.934;11.166;2023-05-28T22:14:20;1.37;;;1.03;;
13071;SDS011;6602;58.934;11.166;2023-05-28T22:19:26;1.50;;;0.80;;
13071;SDS011;6602;58.934;11.166;2023-05-28T22:24:29;0.80;;;0.77;;
13071;SDS011;6602;58.934;11.166;2023-05-28T22:29:35;1.70;;;0.70;;
13071;SDS011;6602;58.934;11.166;2023-05-28T22:34:39;1.03;;;0.50;;
13071;SDS011;6602;58.934;11.166;2023-05-28T22:39:40;1.93;;;0.60;;
13071;SDS011;6602;58.934;11.166;2023-05-28T22:44:41;1.10;;;0.80;;
13071;SDS011;6602;58.934;11.166;2023-05-28T22:49:42;0.93;;;0.90;;
13071;SDS011;6602;58.934;11.166;2023-05-28T22:54:43;1.03;;;0.70;;
13071;SDS011;6602;58.934;11.166;2023-05-28T22:59:45;1.40;;;0.80;;
13071;SDS011;6602;58.934;11.166;2023-05-28T23:04:46;1.70;;;0.90;;
13071;SDS011;6602;58.934;11.166;2023-05-28T23:09:46;3.37;;;0.87;;
13071;SDS011;6602;58.934;11.166;2023-05-28T23:14:50;2.73;;;0.63;;
13071;SDS011;6602;58.934;11.166;2023-05-28T23:19:55;1.10;;;0.80;;
13071;SDS011;6602;58.934;11.166;2023-05-28T23:24:59;6.10;;;0.80;;
13071;SDS011;6602;58.934;11.166;2023-05-28T23:30:07;2.37;;;0.97;;
13071;SDS011;6602;58.934;11.166;2023-05-28T23:35:10;1.37;;;0.70;;
13071;SDS011;6602;58.934;11.166;2023-05-28T23:40:14;1.37;;;0.77;;
13071;SDS011;6602;58.934;11.166;2023-05-28T23:45:15;0.90;;;0.77;;
13071;SDS011;6602;58.934;11.166;2023-05-28T23:50:18;0.97;;;0.70;;
13071;SDS011;6602;58.934;11.166;2023-05-28T23:55:19;2.77;;;0.60;;
